createdAt,value
2022-11-20T00:00:06.385Z,79.23
2022-11-20T00:06:04.124Z,79.78
2022-11-20T00:11:56.319Z,79.87
2022-11-20T00:17:48.584Z,81.47
2022-11-20T00:23:43.521Z,81.47
2022-11-20T00:29:36.455Z,79.82
2022-11-20T00:35:28.536Z,79.33
2022-11-20T00:41:21.825Z,80.16
2022-11-20T00:47:14.136Z,80.00
2022-11-20T00:53:06.054Z,80.58
2022-11-20T00:59:01.344Z,80.23
2022-11-20T01:04:53.546Z,80.16
2022-11-20T01:10:45.755Z,79.91
2022-11-20T01:16:39.833Z,80.74
2022-11-20T01:22:32.555Z,79.97
2022-11-20T01:28:24.664Z,79.59
2022-11-20T01:34:20.593Z,80.64
2022-11-20T01:40:12.994Z,80.52
2022-11-20T01:46:14.664Z,79.82
2022-11-20T01:52:15.133Z,79.11
2022-11-20T01:58:08.193Z,79.64
2022-11-20T02:04:01.962Z,79.88
2022-11-20T02:09:58.585Z,80.15
2022-11-20T02:15:52.274Z,80.50
2022-11-20T02:21:54.855Z,80.60
2022-11-20T02:27:48.145Z,79.08
2022-11-20T02:33:40.935Z,79.21
2022-11-20T02:39:33.546Z,79.84
2022-11-20T02:45:26.234Z,79.40
2022-11-20T02:51:18.524Z,79.93
2022-11-20T02:57:10.594Z,80.00
2022-11-20T03:03:02.962Z,79.87
2022-11-20T03:08:55.564Z,80.03
2022-11-20T03:14:52.585Z,80.14
2022-11-20T03:20:46.826Z,80.35
2022-11-20T03:26:40.757Z,80.02
2022-11-20T03:32:33.047Z,80.15
2022-11-20T03:38:26.836Z,80.62
2022-11-20T03:44:22.524Z,80.32
2022-11-20T03:50:15.651Z,80.37
2022-11-20T03:56:09.206Z,80.19
2022-11-20T04:02:01.997Z,80.59
2022-11-20T04:07:56.014Z,80.61
2022-11-20T04:13:59.025Z,79.68
2022-11-20T04:19:50.614Z,79.77
2022-11-20T04:25:43.155Z,79.65
2022-11-20T04:31:36.264Z,80.39
2022-11-20T04:37:28.523Z,80.73
2022-11-20T04:43:21.885Z,79.74
2022-11-20T04:49:15.526Z,79.48
2022-11-20T04:55:08.574Z,79.45
2022-11-20T05:01:05.456Z,79.46
2022-11-20T05:06:57.830Z,79.71
2022-11-20T05:12:50.257Z,79.63
2022-11-20T05:18:43.354Z,79.80
2022-11-20T05:24:36.200Z,79.24
2022-11-20T05:30:28.204Z,79.73
2022-11-20T05:36:20.424Z,80.41
2022-11-20T05:42:31.576Z,79.38
2022-11-20T05:48:24.090Z,80.36
2022-11-20T05:54:16.345Z,80.49
2022-11-20T06:00:10.955Z,79.89
2022-11-20T06:06:06.035Z,80.08
2022-11-20T06:11:58.075Z,80.51
2022-11-20T06:17:54.307Z,79.85
2022-11-20T06:23:47.265Z,79.71
2022-11-20T06:29:39.354Z,79.65
2022-11-20T06:35:31.367Z,80.14
2022-11-20T06:41:24.763Z,78.89
2022-11-20T06:47:16.844Z,79.24
2022-11-20T06:53:09.364Z,78.84
2022-11-20T06:59:05.493Z,79.12
2022-11-20T07:04:58.195Z,79.33
2022-11-20T07:10:50.554Z,79.83
2022-11-20T07:16:43.365Z,79.44
2022-11-20T07:22:36.275Z,76.42
2022-11-20T07:28:28.123Z,73.95
2022-11-20T07:34:21.194Z,70.84
2022-11-20T07:40:14.774Z,69.69
2022-11-20T07:46:07.350Z,67.03
2022-11-20T07:52:04.211Z,62.85
2022-11-20T07:58:00.466Z,59.73
2022-11-20T08:03:52.483Z,58.43
2022-11-20T08:09:44.648Z,55.45
2022-11-20T08:15:37.728Z,53.59
2022-11-20T08:21:37.776Z,51.46
2022-11-20T08:27:30.455Z,48.73
2022-11-20T08:33:22.864Z,47.92
2022-11-20T08:39:16.794Z,46.54
2022-11-20T08:45:10.129Z,47.15
2022-11-20T08:51:02.479Z,45.09
2022-11-20T08:56:55.356Z,44.92
2022-11-20T09:02:47.777Z,45.31
2022-11-20T09:08:41.768Z,44.14
2022-11-20T09:14:34.897Z,43.87
2022-11-20T09:20:30.745Z,45.54
2022-11-20T09:26:23.643Z,47.18
2022-11-20T09:32:15.516Z,47.01
2022-11-20T09:38:10.236Z,47.16
2022-11-20T09:44:14.690Z,47.38
2022-11-20T09:50:29.086Z,47.28
2022-11-20T09:56:22.993Z,49.09
2022-11-20T10:02:41.715Z,50.55
2022-11-20T10:08:46.359Z,49.94
2022-11-20T10:15:14.185Z,52.06
2022-11-20T10:21:20.766Z,54.05
2022-11-20T10:27:24.845Z,53.05
2022-11-20T10:33:20.937Z,53.62
2022-11-20T10:39:23.838Z,55.17
2022-11-20T10:45:26.056Z,54.55
2022-11-20T10:51:43.224Z,54.71
2022-11-20T10:58:03.215Z,52.49
2022-11-20T11:03:58.434Z,54.04
2022-11-20T11:09:54.035Z,53.05
2022-11-20T11:15:46.025Z,53.18
2022-11-20T11:21:44.534Z,53.88
2022-11-20T11:27:47.928Z,53.08
2022-11-20T11:33:39.908Z,53.36
2022-11-20T11:39:35.282Z,52.89
2022-11-20T11:45:28.687Z,53.16
2022-11-20T11:51:28.026Z,52.56
2022-11-20T11:57:35.885Z,52.93
2022-11-20T12:03:58.228Z,53.19
2022-11-20T12:09:53.956Z,53.64
2022-11-20T12:15:48.685Z,54.38
2022-11-20T12:22:02.037Z,54.21
2022-11-20T12:28:09.023Z,54.21
2022-11-20T12:34:17.036Z,53.45
2022-11-20T12:40:36.978Z,54.12
2022-11-20T12:46:43.987Z,54.47
2022-11-20T12:52:42.264Z,53.91
2022-11-20T12:58:52.826Z,53.71
2022-11-20T13:05:16.255Z,52.95
2022-11-20T13:11:25.814Z,51.00
2022-11-20T13:17:43.393Z,51.55
2022-11-20T13:23:36.748Z,50.86
2022-11-20T13:29:29.935Z,52.15
2022-11-20T13:35:35.069Z,53.16
2022-11-20T13:41:39.016Z,52.51
2022-11-20T13:47:31.751Z,54.05
2022-11-20T13:54:03.325Z,54.56
2022-11-20T14:00:19.900Z,55.50
2022-11-20T14:06:27.221Z,55.84
2022-11-20T14:12:23.271Z,57.29
2022-11-20T14:18:28.680Z,58.02
2022-11-20T14:24:26.279Z,59.55
2022-11-20T14:30:27.487Z,60.45
2022-11-20T14:36:24.664Z,60.89
2022-11-20T14:42:22.826Z,61.67
2022-11-20T14:48:19.402Z,63.27
2022-11-20T14:54:23.141Z,63.96
2022-11-20T15:00:18.050Z,65.23
2022-11-20T15:06:14.346Z,66.36
2022-11-20T15:12:07.474Z,67.07
2022-11-20T15:18:03.738Z,67.76
2022-11-20T15:24:00.487Z,69.35
2022-11-20T15:29:54.536Z,71.70
2022-11-20T15:35:47.504Z,72.34
2022-11-20T15:41:45.073Z,73.02
2022-11-20T15:47:38.862Z,74.14
2022-11-20T15:53:32.160Z,74.24
2022-11-20T15:59:24.844Z,74.63
2022-11-20T16:05:19.495Z,74.07
2022-11-20T16:11:19.033Z,74.30
2022-11-20T16:17:11.834Z,74.69
2022-11-20T16:23:05.354Z,75.20
2022-11-20T16:28:59.844Z,75.74
2022-11-20T16:34:52.184Z,75.91
2022-11-20T16:40:45.042Z,76.03
2022-11-20T16:46:41.146Z,76.86
2022-11-20T16:52:33.815Z,76.73
2022-11-20T16:58:25.967Z,77.16
2022-11-20T17:04:19.105Z,77.40
2022-11-20T17:10:12.058Z,77.37
2022-11-20T17:16:07.425Z,77.25
2022-11-20T17:22:00.054Z,77.44
2022-11-20T17:27:54.873Z,78.51
2022-11-20T17:33:47.576Z,79.25
2022-11-20T17:39:40.470Z,79.04
2022-11-20T17:45:36.655Z,80.20
2022-11-20T17:51:31.266Z,80.41
2022-11-20T17:57:43.040Z,80.93
2022-11-20T18:03:35.174Z,80.77
2022-11-20T18:09:28.064Z,80.62
2022-11-20T18:15:21.704Z,80.86
2022-11-20T18:21:14.206Z,83.55
2022-11-20T18:27:09.861Z,82.54
2022-11-20T18:33:02.238Z,81.61
2022-11-20T18:38:57.215Z,80.79
2022-11-20T18:44:52.076Z,80.34
2022-11-20T18:50:44.410Z,80.41
2022-11-20T18:56:37.456Z,80.44
2022-11-20T19:02:30.855Z,81.06
2022-11-20T19:08:24.365Z,80.74
2022-11-20T19:14:17.136Z,81.39
2022-11-20T19:20:10.234Z,81.12
2022-11-20T19:26:06.082Z,82.21
2022-11-20T19:32:01.362Z,81.97
2022-11-20T19:37:55.653Z,81.36
2022-11-20T19:43:52.518Z,81.62
2022-11-20T19:49:48.470Z,81.27
2022-11-20T19:55:44.939Z,80.52
2022-11-20T20:01:59.281Z,79.38
2022-11-20T20:07:52.914Z,79.50
2022-11-20T20:13:47.872Z,79.98
2022-11-20T20:19:40.343Z,80.09
2022-11-20T20:25:32.852Z,78.96
2022-11-20T20:31:27.931Z,78.42
2022-11-20T20:37:20.641Z,77.92
2022-11-20T20:43:13.082Z,78.37
2022-11-20T20:49:05.663Z,78.18
2022-11-20T20:54:58.464Z,77.87
2022-11-20T21:00:51.302Z,77.91
2022-11-20T21:06:43.482Z,77.71
2022-11-20T21:12:36.633Z,79.03
2022-11-20T21:18:29.907Z,79.10
2022-11-20T21:24:23.988Z,79.15
2022-11-20T21:30:16.905Z,79.57
2022-11-20T21:36:11.953Z,79.96
2022-11-20T21:42:04.462Z,81.26
2022-11-20T21:47:56.362Z,81.84
2022-11-20T21:53:49.490Z,81.61
2022-11-20T21:59:41.944Z,81.70
2022-11-20T22:05:34.604Z,82.09
2022-11-20T22:11:26.852Z,81.71
2022-11-20T22:17:39.442Z,80.60
2022-11-20T22:23:31.542Z,80.82
2022-11-20T22:29:23.422Z,81.48
2022-11-20T22:35:15.445Z,81.92
2022-11-20T22:41:10.433Z,83.05
2022-11-20T22:47:04.383Z,83.17
2022-11-20T22:52:59.810Z,81.82
2022-11-20T22:58:52.939Z,82.63
2022-11-20T23:04:46.123Z,81.61
2022-11-20T23:10:39.002Z,82.40
2022-11-20T23:16:33.481Z,82.83
2022-11-20T23:22:25.923Z,83.58
2022-11-20T23:28:18.803Z,83.25
2022-11-20T23:34:10.963Z,82.29
2022-11-20T23:40:05.624Z,82.40
2022-11-20T23:45:59.236Z,83.35
2022-11-20T23:51:51.871Z,83.43
2022-11-20T23:57:43.483Z,82.72
